Time;durP1;ratioP1;P1;durP2;ratioP2;P2;SDS_P1;SDS_P2;PMS_P1;PMS_P2;Temp;Humidity;BMP_temperature;BMP_pressure;BME280_temperature;BME280_humidity;BME280_pressure;Samples;Min_cycle;Max_cycle;Signal;HPM_P1;HPM_P2
2023/01/10 00:00:15;;;;;;;2.63;1.75;;;;;;;;;;10465515;28;20052;-79
2023/01/10 00:05:17;;;;;;;2.80;1.50;;;;;;;;;;10477280;28;20388;-79
2023/01/10 00:10:21;;;;;;;2.57;1.60;;;;;;;;;;10487222;28;20059;-78
2023/01/10 00:15:23;;;;;;;2.88;2.00;;;;;;;;;;10468558;28;20048;-77
2023/01/10 00:20:23;;;;;;;7.18;2.15;;;;;;;;;;10450463;28;20062;-78
2023/01/10 00:25:24;;;;;;;2.05;1.70;;;;;;;;;;10493138;28;20036;-78
2023/01/10 00:30:27;;;;;;;4.38;1.80;;;;;;;;;;10480599;28;20060;-79
2023/01/10 00:35:28;;;;;;;3.53;1.95;;;;;;;;;;10500496;28;20079;-79
2023/01/10 00:40:31;;;;;;;3.22;2.03;;;;;;;;;;10524750;28;20048;-78
2023/01/10 00:45:34;;;;;;;2.63;2.23;;;;;;;;;;10516090;28;20035;-79
2023/01/10 00:50:35;;;;;;;;;;;;;;;;;;10509509;28;20044;-76
2023/01/10 00:55:37;;;;;;;3.97;1.90;;;;;;;;;;10482904;28;19923;-76
2023/01/10 01:00:40;;;;;;;3.53;2.47;;;;;;;;;;10475950;28;20040;-76
2023/01/10 01:05:45;;;;;;;4.32;2.42;;;;;;;;;;10464188;28;20040;-77
2023/01/10 01:10:45;;;;;;;2.90;2.60;;;;;;;;;;10475271;28;20057;-77
2023/01/10 01:15:47;;;;;;;2.97;2.58;;;;;;;;;;10514080;28;20021;-77
2023/01/10 01:20:52;;;;;;;4.00;2.80;;;;;;;;;;10509607;28;20062;-76
2023/01/10 01:25:53;;;;;;;3.50;3.08;;;;;;;;;;10495880;28;20040;-77
2023/01/10 01:30:54;;;;;;;3.35;3.00;;;;;;;;;;10466049;28;20576;-78
2023/01/10 01:35:55;;;;;;;3.42;2.90;;;;;;;;;;10466443;28;20037;-76
2023/01/10 01:40:55;;;;;;;4.18;2.95;;;;;;;;;;10460548;28;20044;-77
2023/01/10 01:45:59;;;;;;;5.53;3.45;;;;;;;;;;10464433;28;20132;-78
2023/01/10 01:51:04;;;;;;;3.00;2.80;;;;;;;;;;10466251;28;20104;-79
2023/01/10 01:56:11;;;;;;;3.22;2.90;;;;;;;;;;10465232;28;20200;-79
2023/01/10 02:01:13;;;;;;;4.05;2.53;;;;;;;;;;10480895;28;20047;-79
2023/01/10 02:06:15;;;;;;;;;;;;;;;;;;10485967;28;20055;-77
2023/01/10 02:11:15;;;;;;;2.75;2.33;;;;;;;;;;10493949;28;19924;-76
2023/01/10 02:16:16;;;;;;;2.50;2.20;;;;;;;;;;10482018;28;20041;-77
2023/01/10 02:21:43;;;;;;;2.42;2.10;;;;;;;;;;10478278;28;20143;-76
2023/01/10 02:26:43;;;;;;;3.28;1.92;;;;;;;;;;10485799;28;20051;-76
2023/01/10 02:31:50;;;;;;;4.40;2.65;;;;;;;;;;10489627;28;20084;-78
2023/01/10 02:37:15;;;;;;;2.30;1.90;;;;;;;;;;10483219;28;20044;-78
2023/01/10 02:42:34;;;;;;;2.92;2.15;;;;;;;;;;10500001;28;20082;-78
2023/01/10 02:47:39;;;;;;;2.95;2.20;;;;;;;;;;10473112;28;20056;-77
2023/01/10 02:52:39;;;;;;;2.42;2.13;;;;;;;;;;10461251;28;20106;-77
2023/01/10 02:57:39;;;;;;;3.20;2.40;;;;;;;;;;10467122;28;20055;-78
2023/01/10 03:03:00;;;;;;;2.90;2.53;;;;;;;;;;10487583;28;20298;-76
2023/01/10 03:08:06;;;;;;;3.10;2.80;;;;;;;;;;10455178;28;20770;-75
2023/01/10 03:13:10;;;;;;;3.20;2.90;;;;;;;;;;10476761;28;20056;-78
2023/01/10 03:18:14;;;;;;;3.55;2.65;;;;;;;;;;10503274;28;20059;-78
2023/01/10 03:23:15;;;;;;;3.72;3.05;;;;;;;;;;10499453;28;20035;-78
2023/01/10 03:28:18;;;;;;;5.18;3.00;;;;;;;;;;10491257;28;20108;-77
2023/01/10 03:33:23;;;;;;;4.37;3.23;;;;;;;;;;10470656;28;20526;-77
2023/01/10 03:38:30;;;;;;;4.50;3.22;;;;;;;;;;10447010;28;20055;-78
2023/01/10 03:49:03;;;;;;;5.10;3.60;;;;;;;;;;10492965;28;20528;-77
2023/01/10 03:54:04;;;;;;;4.75;3.08;;;;;;;;;;10466546;28;20372;-78
2023/01/10 03:59:05;;;;;;;4.93;3.80;;;;;;;;;;10483151;28;20056;-77
2023/01/10 04:04:05;;;;;;;7.15;3.58;;;;;;;;;;10477085;28;20605;-77
2023/01/10 04:09:07;;;;;;;4.05;3.20;;;;;;;;;;10465074;28;20083;-78
2023/01/10 04:14:07;;;;;;;4.68;3.75;;;;;;;;;;10470545;28;20052;-77
2023/01/10 04:19:08;;;;;;;5.45;3.67;;;;;;;;;;10453328;28;20053;-77
2023/01/10 04:24:08;;;;;;;5.43;3.95;;;;;;;;;;10455062;28;20099;-79
2023/01/10 04:29:09;;;;;;;4.22;3.78;;;;;;;;;;10469395;28;20053;-80
2023/01/10 04:34:10;;;;;;;5.47;4.05;;;;;;;;;;10474402;28;20136;-77
2023/01/10 04:39:10;;;;;;;4.70;4.05;;;;;;;;;;10472364;28;20102;-78
2023/01/10 04:44:11;;;;;;;5.28;3.83;;;;;;;;;;10458509;28;20135;-79
2023/01/10 04:49:12;;;;;;;6.07;3.78;;;;;;;;;;10481534;28;20060;-78
2023/01/10 04:54:13;;;;;;;6.07;3.80;;;;;;;;;;10520102;28;20048;-79
2023/01/10 04:59:14;;;;;;;6.63;3.88;;;;;;;;;;10490615;28;20504;-79
2023/01/10 05:04:14;;;;;;;7.28;3.90;;;;;;;;;;10468915;28;20040;-79
2023/01/10 05:09:16;;;;;;;5.43;3.60;;;;;;;;;;10473419;28;20552;-79
2023/01/10 05:14:17;;;;;;;5.85;3.40;;;;;;;;;;10471752;28;20071;-79
2023/01/10 05:19:18;;;;;;;6.55;3.72;;;;;;;;;;10441941;28;20051;-79
2023/01/10 05:24:18;;;;;;;6.70;4.57;;;;;;;;;;10456565;28;20049;-77
2023/01/10 05:29:18;;;;;;;5.63;3.90;;;;;;;;;;10452937;28;20322;-79
2023/01/10 05:34:19;;;;;;;4.93;3.37;;;;;;;;;;10470265;28;20286;-80
2023/01/10 05:39:20;;;;;;;5.32;3.38;;;;;;;;;;10496579;28;20285;-78
2023/01/10 05:44:21;;;;;;;8.43;3.50;;;;;;;;;;10480392;28;20049;-78
2023/01/10 05:49:21;;;;;;;5.95;3.63;;;;;;;;;;10482996;28;20049;-78
2023/01/10 05:54:21;;;;;;;4.63;3.10;;;;;;;;;;10485059;28;20033;-78
2023/01/10 05:59:23;;;;;;;4.50;3.10;;;;;;;;;;10448833;28;20287;-82
2023/01/10 06:04:25;;;;;;;6.63;3.05;;;;;;;;;;10508392;28;20094;-81
2023/01/10 06:09:25;;;;;;;6.45;3.13;;;;;;;;;;10460257;28;20053;-77
2023/01/10 06:14:28;;;;;;;7.32;3.53;;;;;;;;;;10478089;28;20481;-80
2023/01/10 06:19:29;;;;;;;6.75;3.63;;;;;;;;;;10461769;28;20045;-79
2023/01/10 06:24:29;;;;;;;5.40;3.85;;;;;;;;;;10461910;28;20556;-78
2023/01/10 06:29:31;;;;;;;9.90;3.60;;;;;;;;;;10447410;28;20055;-80
2023/01/10 06:34:32;;;;;;;6.68;4.20;;;;;;;;;;10470019;28;20048;-82
2023/01/10 06:39:35;;;;;;;13.52;6.82;;;;;;;;;;10459766;28;20072;-78
2023/01/10 06:44:36;;;;;;;7.63;4.10;;;;;;;;;;10438284;28;20131;-80
2023/01/10 06:49:37;;;;;;;8.45;4.00;;;;;;;;;;10464237;28;20540;-80
2023/01/10 06:54:38;;;;;;;7.43;3.78;;;;;;;;;;10444362;28;20511;-77
2023/01/10 06:59:38;;;;;;;6.88;3.65;;;;;;;;;;10440340;28;20057;-80
2023/01/10 07:04:39;;;;;;;4.95;3.30;;;;;;;;;;10474199;28;20045;-80
2023/01/10 07:09:39;;;;;;;4.70;3.03;;;;;;;;;;10448834;28;20049;-79
2023/01/10 07:14:41;;;;;;;10.00;3.23;;;;;;;;;;10453569;28;20048;-76
2023/01/10 07:19:42;;;;;;;6.97;3.42;;;;;;;;;;10472596;28;20676;-77
2023/01/10 07:24:42;;;;;;;6.57;3.10;;;;;;;;;;10481000;28;20036;-77
2023/01/10 07:29:43;;;;;;;5.80;2.95;;;;;;;;;;10459772;28;20472;-77
2023/01/10 07:34:44;;;;;;;4.43;2.60;;;;;;;;;;10442838;28;20512;-76
2023/01/10 07:39:45;;;;;;;4.55;2.90;;;;;;;;;;10479013;28;20071;-79
2023/01/10 07:44:45;;;;;;;5.55;3.20;;;;;;;;;;10503438;28;20035;-78
2023/01/10 07:49:46;;;;;;;7.35;3.30;;;;;;;;;;10478304;28;20052;-80
2023/01/10 07:54:48;;;;;;;7.20;3.38;;;;;;;;;;10496108;28;20132;-79
2023/01/10 07:59:49;;;;;;;6.87;3.60;;;;;;;;;;10488382;28;20049;-79
2023/01/10 08:04:49;;;;;;;6.03;2.40;;;;;;;;;;10468212;28;20287;-78
2023/01/10 08:09:51;;;;;;;4.50;2.60;;;;;;;;;;10476537;28;20064;-80
2023/01/10 08:14:52;;;;;;;3.92;2.70;;;;;;;;;;10455402;28;20128;-76
2023/01/10 08:19:52;;;;;;;6.38;2.67;;;;;;;;;;10468114;28;20080;-78
2023/01/10 08:24:54;;;;;;;4.40;2.55;;;;;;;;;;10486977;28;20021;-80
2023/01/10 08:29:55;;;;;;;7.47;2.65;;;;;;;;;;10517849;28;20043;-79
2023/01/10 08:34:57;;;;;;;4.63;2.60;;;;;;;;;;10530837;28;20052;-78
2023/01/10 08:39:58;;;;;;;3.05;2.50;;;;;;;;;;10471626;28;20049;-77
2023/01/10 08:44:59;;;;;;;3.35;2.20;;;;;;;;;;10472355;28;20131;-76
2023/01/10 08:50:01;;;;;;;4.38;2.70;;;;;;;;;;10458058;28;20063;-78
2023/01/10 08:55:02;;;;;;;6.95;3.45;;;;;;;;;;10458916;28;20189;-78
2023/01/10 09:00:03;;;;;;;5.28;3.10;;;;;;;;;;10467370;28;20131;-78
2023/01/10 09:05:04;;;;;;;5.75;3.40;;;;;;;;;;10493275;28;20438;-78
2023/01/10 09:10:06;;;;;;;4.40;2.80;;;;;;;;;;10482125;28;20133;-77
2023/01/10 09:15:08;;;;;;;3.83;3.38;;;;;;;;;;10491309;28;20201;-77
2023/01/10 09:20:10;;;;;;;7.13;3.08;;;;;;;;;;10519799;28;20075;-79
2023/01/10 09:25:10;;;;;;;4.68;2.65;;;;;;;;;;10486677;28;20048;-76
2023/01/10 09:30:11;;;;;;;7.00;3.13;;;;;;;;;;10484208;28;20059;-77
2023/01/10 09:35:13;;;;;;;6.63;3.30;;;;;;;;;;10515135;28;20055;-77
2023/01/10 09:40:18;;;;;;;7.60;3.40;;;;;;;;;;10502226;28;20043;-79
2023/01/10 09:45:22;;;;;;;6.93;3.13;;;;;;;;;;10504638;28;20236;-78
2023/01/10 09:50:22;;;;;;;;;;;;;;;;;;10486744;28;20051;-77
2023/01/10 09:55:22;;;;;;;6.88;4.53;;;;;;;;;;10502540;28;19916;-77
2023/01/10 10:00:41;;;;;;;10.75;3.63;;;;;;;;;;10510279;28;20040;-78
2023/01/10 10:05:48;;;;;;;7.45;3.20;;;;;;;;;;10517503;28;20037;-77
2023/01/10 10:11:01;;;;;;;3.92;3.03;;;;;;;;;;10508641;28;20052;-80
2023/01/10 10:16:09;;;;;;;5.35;3.05;;;;;;;;;;10509442;28;20059;-78
2023/01/10 10:21:18;;;;;;;7.22;2.47;;;;;;;;;;10497375;28;20212;-77
2023/01/10 10:26:26;;;;;;;3.63;2.40;;;;;;;;;;10505871;28;20217;-78
2023/01/10 10:31:27;;;;;;;4.90;2.28;;;;;;;;;;10505061;28;20070;-79
2023/01/10 10:36:34;;;;;;;7.53;3.92;;;;;;;;;;10507465;28;20339;-79
2023/01/10 10:41:37;;;;;;;4.65;2.88;;;;;;;;;;10500423;28;20484;-78
2023/01/10 10:46:38;;;;;;;9.68;3.03;;;;;;;;;;10496675;28;20967;-77
2023/01/10 10:51:52;;;;;;;4.88;2.55;;;;;;;;;;10554062;28;20066;-80
2023/01/10 10:56:57;;;;;;;5.85;3.10;;;;;;;;;;10541794;28;20136;-78
2023/01/10 11:01:57;;;;;;;5.18;2.40;;;;;;;;;;10506074;28;20055;-77
2023/01/10 11:06:58;;;;;;;3.88;2.60;;;;;;;;;;10500469;28;20055;-77
2023/01/10 11:11:58;;;;;;;5.47;2.63;;;;;;;;;;10473444;28;20083;-78
2023/01/10 11:17:16;;;;;;;2.80;2.30;;;;;;;;;;10503272;28;20403;-78
2023/01/10 11:22:16;;;;;;;4.13;2.50;;;;;;;;;;10492120;28;20511;-78
2023/01/10 11:27:18;;;;;;;5.25;2.65;;;;;;;;;;10494431;28;20066;-78
2023/01/10 11:32:26;;;;;;;4.30;2.20;;;;;;;;;;10510241;28;20064;-77
2023/01/10 11:37:30;;;;;;;6.45;2.60;;;;;;;;;;10488508;28;20080;-80
2023/01/10 11:42:32;;;;;;;10.77;2.90;;;;;;;;;;10489455;28;20044;-79
2023/01/10 11:47:32;;;;;;;3.63;1.98;;;;;;;;;;10496276;28;20137;-79
2023/01/10 11:52:33;;;;;;;7.28;2.05;;;;;;;;;;10485264;28;20051;-80
2023/01/10 11:57:33;;;;;;;4.55;1.88;;;;;;;;;;10485731;28;20040;-79
2023/01/10 12:02:39;;;;;;;5.25;2.20;;;;;;;;;;10506514;28;20032;-80
2023/01/10 12:07:57;;;;;;;10.02;2.70;;;;;;;;;;10505663;28;20052;-79
2023/01/10 12:13:12;;;;;;;5.72;2.50;;;;;;;;;;10486241;28;20056;-79
2023/01/10 12:18:12;;;;;;;6.72;2.55;;;;;;;;;;10498908;28;20040;-79
2023/01/10 12:23:16;;;;;;;6.15;2.58;;;;;;;;;;10501145;28;20061;-77
2023/01/10 12:28:20;;;;;;;6.82;2.45;;;;;;;;;;10517173;28;20044;-78
2023/01/10 12:33:22;;;;;;;7.28;2.60;;;;;;;;;;10511442;28;20055;-79
2023/01/10 12:49:21;;;;;;;4.35;1.83;;;;;;;;;;10511031;28;20074;-80
2023/01/10 12:54:23;;;;;;;9.60;3.05;;;;;;;;;;10515517;28;20041;-78
2023/01/10 12:59:36;;;;;;;6.68;2.45;;;;;;;;;;10515856;28;20044;-80
2023/01/10 13:04:38;;;;;;;7.00;2.58;;;;;;;;;;10514912;28;20132;-80
2023/01/10 13:09:42;;;;;;;6.72;2.00;;;;;;;;;;10494433;28;20066;-79
2023/01/10 13:14:46;;;;;;;6.20;2.25;;;;;;;;;;10553353;28;20066;-82
2023/01/10 13:19:46;;;;;;;;;;;;;;;;;;10565481;28;20078;-79
2023/01/10 13:25:02;;;;;;;8.00;2.43;;;;;;;;;;10550979;28;19946;-79
2023/01/10 13:30:03;;;;;;;6.75;2.15;;;;;;;;;;10508820;28;20342;-83
2023/01/10 13:35:11;;;;;;;6.30;2.05;;;;;;;;;;10528779;28;20491;-76
2023/01/10 13:40:26;;;;;;;10.27;2.47;;;;;;;;;;10501587;28;20049;-78
2023/01/10 13:45:27;;;;;;;4.63;1.77;;;;;;;;;;10494774;28;20147;-80
2023/01/10 13:50:42;;;;;;;5.47;2.00;;;;;;;;;;10493192;28;20130;-79
2023/01/10 13:55:52;;;;;;;5.13;2.40;;;;;;;;;;10497916;28;20037;-78
2023/01/10 14:06:28;;;;;;;8.73;2.20;;;;;;;;;;10521229;28;20563;-80
2023/01/10 14:11:35;;;;;;;7.13;2.85;;;;;;;;;;10534828;28;20773;-79
2023/01/10 14:16:38;;;;;;;5.47;2.10;;;;;;;;;;10545624;28;20043;-81
2023/01/10 14:21:41;;;;;;;5.87;2.73;;;;;;;;;;10530052;28;20041;-80
2023/01/10 14:26:43;;;;;;;15.65;4.95;;;;;;;;;;10513411;28;20392;-78
2023/01/10 14:31:48;;;;;;;7.22;3.17;;;;;;;;;;10516674;28;20091;-83
2023/01/10 14:36:52;;;;;;;6.60;2.80;;;;;;;;;;10523595;28;20046;-82
2023/01/10 14:41:57;;;;;;;8.50;2.22;;;;;;;;;;10512155;28;20522;-81
2023/01/10 14:46:57;;;;;;;;;;;;;;;;;;10521175;28;20104;-79
2023/01/10 14:52:30;;;;;;;8.03;2.60;;;;;;;;;;10512230;28;19950;-81
2023/01/10 14:57:31;;;;;;;6.60;2.65;;;;;;;;;;10472931;28;20089;-82
2023/01/10 15:02:32;;;;;;;7.68;2.88;;;;;;;;;;10511100;28;20528;-81
2023/01/10 15:07:36;;;;;;;7.32;2.28;;;;;;;;;;10511700;28;20093;-80
2023/01/10 15:12:37;;;;;;;8.75;2.55;;;;;;;;;;10514020;28;20052;-82
2023/01/10 15:17:38;;;;;;;7.20;2.88;;;;;;;;;;10426235;28;20412;-79
2023/01/10 15:22:39;;;;;;;7.55;2.70;;;;;;;;;;10425509;28;20049;-78
2023/01/10 15:27:43;;;;;;;8.05;3.17;;;;;;;;;;10440421;28;20044;-80
2023/01/10 15:32:44;;;;;;;7.47;2.95;;;;;;;;;;10465890;28;20039;-82
2023/01/10 15:37:53;;;;;;;8.57;3.88;;;;;;;;;;10464343;28;20052;-79
2023/01/10 15:43:23;;;;;;;10.73;3.40;;;;;;;;;;10497581;28;20034;-80
2023/01/10 15:48:33;;;;;;;9.18;3.45;;;;;;;;;;10419739;28;20095;-78
2023/01/10 15:53:54;;;;;;;9.27;3.97;;;;;;;;;;10433824;28;20929;-79
2023/01/10 15:58:56;;;;;;;13.73;3.97;;;;;;;;;;10437270;28;20480;-80
2023/01/10 16:03:59;;;;;;;11.88;3.63;;;;;;;;;;10433657;28;20044;-78
2023/01/10 16:09:05;;;;;;;9.50;4.15;;;;;;;;;;10444404;28;20382;-81
2023/01/10 16:14:08;;;;;;;11.48;4.65;;;;;;;;;;10401676;28;20058;-82
2023/01/10 16:19:09;;;;;;;10.18;4.38;;;;;;;;;;10430882;28;20053;-78
2023/01/10 16:24:28;;;;;;;7.55;4.00;;;;;;;;;;10427296;28;20155;-80
2023/01/10 16:29:29;;;;;;;8.80;4.20;;;;;;;;;;10430704;28;20078;-79
2023/01/10 16:34:32;;;;;;;13.83;5.43;;;;;;;;;;10452093;28;20080;-79
2023/01/10 16:39:33;;;;;;;;;;;;;;;;;;10439328;28;20279;-78
2023/01/10 16:44:35;;;;;;;11.05;4.80;;;;;;;;;;10420870;28;19917;-78
2023/01/10 16:49:37;;;;;;;7.95;4.75;;;;;;;;;;10426350;28;20045;-80
2023/01/10 16:54:37;;;;;;;12.45;4.13;;;;;;;;;;10438698;28;20421;-78
2023/01/10 16:59:38;;;;;;;5.82;3.47;;;;;;;;;;10405017;28;20091;-80
2023/01/10 17:04:39;;;;;;;9.98;3.65;;;;;;;;;;10437008;28;20069;-77
2023/01/10 17:09:39;;;;;;;9.65;3.75;;;;;;;;;;10437700;28;20136;-79
2023/01/10 17:14:39;;;;;;;7.35;3.97;;;;;;;;;;10449427;28;20041;-78
2023/01/10 17:19:41;;;;;;;7.90;4.05;;;;;;;;;;10440308;28;20093;-77
2023/01/10 17:24:41;;;;;;;7.65;4.57;;;;;;;;;;10422672;28;20416;-80
2023/01/10 17:29:43;;;;;;;7.70;4.80;;;;;;;;;;10432769;28;20056;-79
2023/01/10 17:34:43;;;;;;;5.95;3.72;;;;;;;;;;10436833;28;21179;-79
2023/01/10 17:39:45;;;;;;;5.85;3.47;;;;;;;;;;10443255;28;20045;-80
2023/01/10 17:44:46;;;;;;;10.80;4.43;;;;;;;;;;10439061;28;20048;-78
2023/01/10 17:49:46;;;;;;;7.10;4.67;;;;;;;;;;10446610;28;20326;-77
2023/01/10 17:54:48;;;;;;;9.00;5.50;;;;;;;;;;10481650;28;20354;-80
2023/01/10 17:59:49;;;;;;;9.50;5.43;;;;;;;;;;10473698;28;20052;-80
2023/01/10 18:04:53;;;;;;;8.73;4.97;;;;;;;;;;10486936;28;20043;-78
2023/01/10 18:09:55;;;;;;;7.55;4.50;;;;;;;;;;10479002;28;20045;-79
2023/01/10 18:14:56;;;;;;;8.40;3.85;;;;;;;;;;10441520;28;20044;-80
2023/01/10 18:19:59;;;;;;;9.23;4.22;;;;;;;;;;10421963;28;20048;-81
2023/01/10 18:25:00;;;;;;;6.65;4.57;;;;;;;;;;10424861;28;20124;-77
2023/01/10 18:30:02;;;;;;;9.35;4.35;;;;;;;;;;10421729;28;20085;-80
2023/01/10 18:35:03;;;;;;;9.57;4.20;;;;;;;;;;10433724;28;20810;-77
2023/01/10 18:40:05;;;;;;;8.50;4.43;;;;;;;;;;10434943;28;20476;-78
2023/01/10 18:45:06;;;;;;;7.65;4.75;;;;;;;;;;10435655;28;20128;-77
2023/01/10 18:50:08;;;;;;;7.53;4.63;;;;;;;;;;10437357;28;20151;-79
2023/01/10 18:55:08;;;;;;;7.13;4.40;;;;;;;;;;10432027;28;20037;-76
2023/01/10 19:00:09;;;;;;;7.85;4.55;;;;;;;;;;10430561;28;20042;-78
2023/01/10 19:05:09;;;;;;;6.00;4.20;;;;;;;;;;10446831;28;20074;-78
2023/01/10 19:10:10;;;;;;;11.35;5.82;;;;;;;;;;10450211;28;20104;-77
2023/01/10 19:15:10;;;;;;;8.52;5.55;;;;;;;;;;10425273;28;20044;-82
2023/01/10 19:20:11;;;;;;;10.50;5.07;;;;;;;;;;10442717;28;20447;-79
2023/01/10 19:25:11;;;;;;;10.75;4.95;;;;;;;;;;10435592;28;20044;-78
2023/01/10 19:30:11;;;;;;;9.45;4.45;;;;;;;;;;10422461;28;20057;-80
2023/01/10 19:35:12;;;;;;;11.68;6.03;;;;;;;;;;10445760;28;20052;-79
2023/01/10 19:40:15;;;;;;;11.48;5.07;;;;;;;;;;10422285;28;20657;-78
2023/01/10 19:45:16;;;;;;;7.00;5.00;;;;;;;;;;10437359;28;20049;-78
2023/01/10 19:50:16;;;;;;;9.60;5.50;;;;;;;;;;10429199;28;20421;-76
2023/01/10 19:55:17;;;;;;;12.35;5.30;;;;;;;;;;10435677;28;20046;-79
2023/01/10 20:00:17;;;;;;;7.53;4.90;;;;;;;;;;10410786;28;20041;-79
2023/01/10 20:05:19;;;;;;;12.32;5.60;;;;;;;;;;10428869;28;20047;-80
2023/01/10 20:10:20;;;;;;;10.77;6.30;;;;;;;;;;10431805;28;20061;-80
2023/01/10 20:15:20;;;;;;;9.65;5.72;;;;;;;;;;10436236;28;20105;-80
2023/01/10 20:20:22;;;;;;;13.20;6.07;;;;;;;;;;10458937;28;20911;-78
2023/01/10 20:25:22;;;;;;;10.23;5.97;;;;;;;;;;10446293;28;20076;-78
2023/01/10 20:30:23;;;;;;;11.27;6.90;;;;;;;;;;10446485;28;20144;-77
2023/01/10 20:35:23;;;;;;;10.52;5.97;;;;;;;;;;10425894;28;20272;-77
2023/01/10 20:40:24;;;;;;;9.38;5.97;;;;;;;;;;10413830;28;20059;-79
2023/01/10 20:45:25;;;;;;;8.70;5.45;;;;;;;;;;10430878;28;20777;-76
2023/01/10 20:50:25;;;;;;;11.88;5.70;;;;;;;;;;10431312;28;20057;-79
2023/01/10 20:55:26;;;;;;;11.35;6.68;;;;;;;;;;10425962;28;20506;-79
2023/01/10 21:00:26;;;;;;;12.60;5.55;;;;;;;;;;10429930;28;20072;-78
2023/01/10 21:05:27;;;;;;;10.88;5.18;;;;;;;;;;10421174;28;20084;-79
2023/01/10 21:10:27;;;;;;;7.00;4.70;;;;;;;;;;10436336;28;20060;-78
2023/01/10 21:15:28;;;;;;;7.40;4.40;;;;;;;;;;10430561;28;20227;-79
2023/01/10 21:20:29;;;;;;;9.80;4.90;;;;;;;;;;10431021;28;20037;-80
2023/01/10 21:25:29;;;;;;;7.35;4.35;;;;;;;;;;10434990;28;20033;-77
2023/01/10 21:30:30;;;;;;;9.32;4.55;;;;;;;;;;10433334;28;20049;-76
2023/01/10 21:35:30;;;;;;;10.20;4.63;;;;;;;;;;10418032;28;20102;-79
2023/01/10 21:40:32;;;;;;;8.13;5.25;;;;;;;;;;10432540;28;20045;-78
2023/01/10 21:45:32;;;;;;;9.25;4.28;;;;;;;;;;10439978;28;20040;-79
2023/01/10 21:50:33;;;;;;;8.23;4.82;;;;;;;;;;10440019;28;20132;-81
2023/01/10 21:55:35;;;;;;;6.88;3.70;;;;;;;;;;10413063;28;20048;-78
2023/01/10 22:00:36;;;;;;;7.82;4.18;;;;;;;;;;10416934;28;20063;-78
2023/01/10 22:05:36;;;;;;;8.07;4.53;;;;;;;;;;10443919;28;20044;-80
2023/01/10 22:10:37;;;;;;;8.32;3.85;;;;;;;;;;10435273;28;20507;-77
2023/01/10 22:15:39;;;;;;;7.53;3.88;;;;;;;;;;10427715;28;20454;-77
2023/01/10 22:20:42;;;;;;;10.60;3.90;;;;;;;;;;10423059;28;20038;-78
2023/01/10 22:25:43;;;;;;;8.63;3.97;;;;;;;;;;10423806;28;20044;-79
2023/01/10 22:30:43;;;;;;;7.78;3.72;;;;;;;;;;10424913;28;20057;-77
2023/01/10 22:35:44;;;;;;;5.10;3.70;;;;;;;;;;10430839;28;20049;-81
2023/01/10 22:40:45;;;;;;;5.35;3.63;;;;;;;;;;10441093;28;20049;-78
2023/01/10 22:45:46;;;;;;;6.35;3.80;;;;;;;;;;10450132;28;20119;-79
2023/01/10 22:50:50;;;;;;;7.13;3.28;;;;;;;;;;10447848;28;20079;-77
2023/01/10 22:55:51;;;;;;;5.30;3.08;;;;;;;;;;10434711;28;20123;-77
2023/01/10 23:00:52;;;;;;;8.75;3.80;;;;;;;;;;10409256;28;20052;-78
2023/01/10 23:05:56;;;;;;;5.05;3.22;;;;;;;;;;10427592;28;20053;-77
2023/01/10 23:10:57;;;;;;;6.78;3.28;;;;;;;;;;10418264;28;20158;-77
2023/01/10 23:15:58;;;;;;;7.47;3.72;;;;;;;;;;10423209;28;20179;-77
2023/01/10 23:20:59;;;;;;;5.80;3.28;;;;;;;;;;10419333;28;20041;-77
2023/01/10 23:26:03;;;;;;;6.13;2.75;;;;;;;;;;10427759;28;20045;-77
2023/01/10 23:31:05;;;;;;;7.57;3.13;;;;;;;;;;10417526;28;20069;-76
2023/01/10 23:36:07;;;;;;;4.47;2.90;;;;;;;;;;10438201;28;20054;-77
2023/01/10 23:41:08;;;;;;;6.93;3.72;;;;;;;;;;10479824;28;20068;-77
2023/01/10 23:46:08;;;;;;;5.45;3.00;;;;;;;;;;10471172;28;20041;-76
2023/01/10 23:51:10;;;;;;;6.28;3.00;;;;;;;;;;10495677;28;20062;-77
2023/01/10 23:56:12;;;;;;;5.38;2.78;;;;;;;;;;10447310;28;20440;-78
